FBSP

Selebi Phikwe Airport

Botswana
METAR FBSP 231600Z 14003KT 9999 SCT025 SCT080 25/20 Q1011
Observed Flight Rules
Feb-23 @ 16:00 UTC (38 minutes ago) Visual Flight Rules
Wind Visibility Clouds
140° at 3 knots 10,000+ meters
  • Scattered at 2,500' AGL
  • Scattered at 8,000' AGL
Temperatures Readings
Current 25°C / 77°F
Dewpoint 20°C / 68°F
Humidity 74%
Altimeter 29.85" Hg
Pressure 1011 hPa
Elevation 892
METAR FBSP 231600Z 14003KT 9999 SCT025 SCT080 25/20 Q1011
Observed Flight Rules
Feb-23 @ 16:00 UTC
(38 minutes ago)
VFR
Wind Visibility
140° at 3 knots 10,000+ meters
Clouds
  • Scattered at 2,500' AGL
  • Scattered at 8,000' AGL
Temperature Dewpoint
25°C / 77°F 20°C / 68°F
Humidity Altimeter Pressure
74% 29.85" Hg 1011 hPa